createdAt,value
2018-09-02T00:01:49.179Z,100979.70
2018-09-02T00:04:17.077Z,100979.33
2018-09-02T00:06:44.656Z,100974.92
2018-09-02T00:09:12.297Z,100962.92
2018-09-02T00:11:40.300Z,100964.25
2018-09-02T00:14:07.919Z,100965.99
2018-09-02T00:16:35.546Z,100968.56
2018-09-02T00:19:03.456Z,100969.41
2018-09-02T00:21:31.035Z,100971.70
2018-09-02T00:23:58.612Z,100970.36
2018-09-02T00:26:26.198Z,100970.73
2018-09-02T00:28:53.815Z,100971.70
2018-09-02T00:31:21.439Z,100962.17
2018-09-02T00:33:51.455Z,100972.20
2018-09-02T00:36:19.135Z,100963.85
2018-09-02T00:38:47.788Z,100965.22
2018-09-02T00:41:15.788Z,100966.08
2018-09-02T00:43:43.720Z,100966.61
2018-09-02T00:46:11.356Z,100965.20
2018-09-02T00:48:39.395Z,100960.64
2018-09-02T00:51:07.003Z,100960.95
2018-09-02T00:53:34.718Z,100961.63
2018-09-02T00:56:02.828Z,100963.54
2018-09-02T00:58:31.483Z,100962.20
2018-09-02T01:00:59.099Z,100962.39
2018-09-02T01:03:26.994Z,100960.69
2018-09-02T01:05:54.610Z,100965.14
2018-09-02T01:08:22.339Z,100965.36
2018-09-02T01:10:50.594Z,100967.86
2018-09-02T01:13:18.478Z,100968.13
2018-09-02T01:15:46.685Z,100974.53
2018-09-02T01:18:15.320Z,100972.16
2018-09-02T01:20:43.386Z,100977.58
2018-09-02T01:23:11.095Z,100975.01
2018-09-02T01:25:39.330Z,100980.33
2018-09-02T01:28:07.315Z,100980.42
2018-09-02T01:30:34.970Z,100972.34
2018-09-02T01:33:02.567Z,100975.01
2018-09-02T01:35:34.521Z,100979.00
2018-09-02T01:38:03.479Z,100982.71
2018-09-02T01:40:31.190Z,100977.09
2018-09-02T01:42:59.124Z,100975.02
2018-09-02T01:45:26.745Z,100977.52
2018-09-02T01:47:54.350Z,100978.06
2018-09-02T01:50:21.974Z,100972.94
2018-09-02T01:52:50.179Z,100982.27
2018-09-02T01:55:17.799Z,100979.81
2018-09-02T01:57:45.389Z,100974.48
2018-09-02T02:00:13.380Z,100980.27
2018-09-02T02:02:41.045Z,100982.56
2018-09-02T02:05:08.644Z,100982.47
2018-09-02T02:07:36.691Z,100981.98
2018-09-02T02:10:04.301Z,100986.47
2018-09-02T02:12:31.965Z,100982.84
2018-09-02T02:15:00.076Z,100985.13
2018-09-02T02:17:27.786Z,100978.19
2018-09-02T02:19:55.495Z,100978.27
2018-09-02T02:22:23.495Z,100978.10
2018-09-02T02:24:51.075Z,100972.95
2018-09-02T02:27:18.692Z,100966.88
2018-09-02T02:29:46.715Z,100960.88
2018-09-02T02:32:14.593Z,100965.92
2018-09-02T02:34:42.247Z,100963.46
2018-09-02T02:37:10.310Z,100971.16
2018-09-02T02:39:37.897Z,100968.20
2018-09-02T02:42:05.500Z,100964.88
2018-09-02T02:44:33.557Z,100951.28
2018-09-02T02:47:01.320Z,100955.09
2018-09-02T02:49:28.928Z,100949.94
2018-09-02T02:51:57.110Z,100952.31
2018-09-02T02:54:24.716Z,100947.19
2018-09-02T02:56:52.337Z,100945.95
2018-09-02T02:59:20.459Z,100948.81
2018-09-02T03:01:48.036Z,100943.11
2018-09-02T03:04:15.638Z,100941.03
2018-09-02T03:06:43.639Z,100941.86
2018-09-02T03:09:12.357Z,100946.86
2018-09-02T03:11:40.109Z,100937.25
2018-09-02T03:14:08.666Z,100932.05
2018-09-02T03:16:36.279Z,100934.42
2018-09-02T03:19:03.951Z,100936.79
2018-09-02T03:21:32.051Z,100936.61
2018-09-02T03:23:59.635Z,100939.73
2018-09-02T03:26:27.221Z,100939.36
2018-09-02T03:28:54.827Z,100935.45
2018-09-02T03:31:22.447Z,100934.61
2018-09-02T03:33:50.060Z,100934.31
2018-09-02T03:36:18.145Z,100934.31
2018-09-02T03:38:45.745Z,100927.29
2018-09-02T03:41:13.327Z,100929.54
2018-09-02T03:43:40.956Z,100926.42
2018-09-02T03:46:08.959Z,100921.02
2018-09-02T03:48:36.583Z,100918.65
2018-09-02T03:51:04.192Z,100913.33
2018-09-02T03:53:31.788Z,100913.04
2018-09-02T03:55:59.820Z,100913.88
2018-09-02T03:58:27.438Z,100911.13
2018-09-02T04:00:55.075Z,100907.22
2018-09-02T04:03:22.734Z,100906.02
2018-09-02T04:05:50.628Z,100908.84
2018-09-02T04:08:18.219Z,100913.41
2018-09-02T04:10:45.809Z,100917.02
2018-09-02T04:13:13.428Z,100919.84
2018-09-02T04:15:41.515Z,100912.44
2018-09-02T04:18:09.124Z,100909.11
2018-09-02T04:20:37.497Z,100907.48
2018-09-02T04:23:05.946Z,100909.02
2018-09-02T04:25:34.441Z,100905.11
2018-09-02T04:28:02.022Z,100910.92
2018-09-02T04:30:30.168Z,100913.58
2018-09-02T04:32:58.317Z,100901.23
2018-09-02T04:35:26.232Z,100899.61
2018-09-02T04:37:54.842Z,100903.68
2018-09-02T04:40:22.978Z,100892.75
2018-09-02T04:42:50.886Z,100893.24
2018-09-02T04:45:18.567Z,100893.33
2018-09-02T04:47:46.246Z,100891.70
2018-09-02T04:50:15.713Z,100895.69
2018-09-02T04:52:43.855Z,100895.31
2018-09-02T04:55:11.550Z,100891.32
2018-09-02T04:57:39.278Z,100891.41
2018-09-02T05:00:08.054Z,100894.55
2018-09-02T05:02:35.667Z,100895.39
2018-09-02T05:05:03.292Z,100895.31
2018-09-02T05:07:30.908Z,100892.65
2018-09-02T05:09:58.860Z,100894.44
2018-09-02T05:12:26.523Z,100893.98
2018-09-02T05:14:54.836Z,100889.04
2018-09-02T05:17:23.714Z,100892.45
2018-09-02T05:19:51.687Z,100892.67
2018-09-02T05:22:19.367Z,100895.50
2018-09-02T05:24:47.208Z,100891.64
2018-09-02T05:27:15.179Z,100892.20
2018-09-02T05:29:42.779Z,100898.98
2018-09-02T05:32:10.347Z,100904.84
2018-09-02T05:34:38.321Z,100901.62
2018-09-02T05:37:06.175Z,100903.16
2018-09-02T05:39:34.458Z,100897.67
2018-09-02T05:42:03.122Z,100901.08
2018-09-02T05:44:30.725Z,100894.53
2018-09-02T05:46:58.355Z,100898.77
2018-09-02T05:49:25.973Z,100898.59
2018-09-02T05:51:54.011Z,100904.27
2018-09-02T05:54:21.650Z,100906.98
2018-09-02T05:56:49.261Z,100909.32
2018-09-02T05:59:17.253Z,100910.05
2018-09-02T06:01:44.873Z,100910.11
2018-09-02T06:04:12.502Z,100911.63
2018-09-02T06:06:40.469Z,100910.64
2018-09-02T06:09:08.079Z,100914.89
2018-09-02T06:11:35.719Z,100911.23
2018-09-02T06:14:04.316Z,100914.80
2018-09-02T06:16:31.940Z,100909.27
2018-09-02T06:18:59.551Z,100916.49
2018-09-02T06:21:27.510Z,100914.48
2018-09-02T06:23:55.455Z,100918.34
2018-09-02T06:26:23.069Z,100911.91
2018-09-02T06:28:50.699Z,100909.47
2018-09-02T06:31:18.681Z,100911.22
2018-09-02T06:33:46.274Z,100912.18
2018-09-02T06:36:13.935Z,100908.30
2018-09-02T06:38:41.607Z,100909.54
2018-09-02T06:41:09.514Z,100908.02
2018-09-02T06:43:37.182Z,100915.96
2018-09-02T06:46:05.440Z,100919.91
2018-09-02T06:48:33.850Z,100911.93
2018-09-02T06:51:01.478Z,100916.14
2018-09-02T06:53:29.083Z,100912.44
2018-09-02T06:55:57.006Z,100913.47
2018-09-02T06:58:24.788Z,100912.34
2018-09-02T07:00:52.406Z,100902.84
2018-09-02T07:03:20.550Z,100904.87
2018-09-02T07:05:48.343Z,100911.53
2018-09-02T07:08:16.962Z,100910.73
2018-09-02T07:10:45.646Z,100906.50
2018-09-02T07:13:15.274Z,100900.59
2018-09-02T07:15:42.896Z,100900.12
2018-09-02T07:18:16.432Z,100893.36
2018-09-02T07:20:45.397Z,100890.37
2018-09-02T07:23:13.007Z,100894.25
2018-09-02T07:25:41.036Z,100895.21
2018-09-02T07:28:08.622Z,100892.36
2018-09-02T07:30:36.266Z,100893.43
2018-09-02T07:33:04.321Z,100890.83
2018-09-02T07:35:32.030Z,100885.88
2018-09-02T07:37:59.816Z,100876.93
2018-09-02T07:40:28.790Z,100881.00
2018-09-02T07:42:56.410Z,100874.48
2018-09-02T07:45:24.548Z,100871.59
2018-09-02T07:47:52.587Z,100868.81
2018-09-02T07:50:20.183Z,100874.83
2018-09-02T07:52:48.700Z,100875.95
2018-09-02T07:55:16.815Z,100877.80
2018-09-02T07:57:44.416Z,100877.08
2018-09-02T08:00:12.972Z,100863.55
2018-09-02T08:02:41.494Z,100859.73
2018-09-02T08:05:09.348Z,100869.41
2018-09-02T08:07:37.263Z,100868.56
2018-09-02T08:10:05.332Z,100865.12
2018-09-02T08:12:33.047Z,100869.93
2018-09-02T08:15:01.203Z,100866.12
2018-09-02T08:17:30.196Z,100867.56
2018-09-02T08:19:58.889Z,100861.69
2018-09-02T08:22:26.766Z,100859.17
2018-09-02T08:24:54.911Z,100866.94
2018-09-02T08:29:47.720Z,100863.13
2018-09-02T08:32:15.605Z,100855.33
2018-09-02T08:34:43.191Z,100858.95
2018-09-02T08:37:11.527Z,100849.72
2018-09-02T08:39:39.498Z,100844.53
2018-09-02T08:42:07.136Z,100844.71
2018-09-02T08:44:34.755Z,100840.77
2018-09-02T08:47:02.826Z,100833.80
2018-09-02T08:49:30.430Z,100824.48
2018-09-02T08:52:01.241Z,100819.39
2018-09-02T08:54:29.172Z,100819.47
2018-09-02T08:56:56.774Z,100828.55
2018-09-02T08:59:24.751Z,100826.59
2018-09-02T09:01:52.782Z,100822.30
2018-09-02T09:04:20.391Z,100820.88
2018-09-02T09:06:47.997Z,100818.44
2018-09-02T09:09:17.583Z,100818.20
2018-09-02T09:11:44.954Z,100821.30
2018-09-02T09:14:13.613Z,100818.30
2018-09-02T09:16:42.628Z,100826.31
2018-09-02T09:19:10.239Z,100823.83
2018-09-02T09:21:38.195Z,100819.77
2018-09-02T09:24:07.127Z,100822.50
2018-09-02T09:26:34.787Z,100832.66
2018-09-02T09:29:02.570Z,100825.21
2018-09-02T09:31:30.520Z,100819.80
2018-09-02T09:33:59.263Z,100820.14
2018-09-02T09:36:26.855Z,100809.42
2018-09-02T09:38:55.436Z,100808.52
2018-09-02T09:41:23.005Z,100808.46
2018-09-02T09:43:50.583Z,100812.52
2018-09-02T09:46:18.660Z,100792.69
2018-09-02T09:48:46.275Z,100802.89
2018-09-02T09:51:14.604Z,100789.37
2018-09-02T09:53:42.574Z,100791.05
2018-09-02T09:56:10.923Z,100788.61
2018-09-02T09:58:39.470Z,100783.69
2018-09-02T10:01:07.468Z,100786.05
2018-09-02T10:03:36.648Z,100783.27
2018-09-02T10:06:05.366Z,100770.76
2018-09-02T10:08:33.347Z,100773.55
2018-09-02T10:11:02.578Z,100770.41
2018-09-02T10:13:31.563Z,100767.68
2018-09-02T10:15:59.480Z,100771.89
2018-09-02T10:18:27.055Z,100765.11
2018-09-02T10:20:54.624Z,100763.88
2018-09-02T10:23:22.710Z,100769.42
2018-09-02T10:25:50.895Z,100763.00
2018-09-02T10:28:19.611Z,100762.20
2018-09-02T10:30:48.529Z,100761.68
2018-09-02T10:33:16.974Z,100757.75
2018-09-02T10:35:44.631Z,100751.69
2018-09-02T10:38:12.650Z,100740.31
2018-09-02T10:40:40.267Z,100749.37
2018-09-02T10:43:08.434Z,100740.80
2018-09-02T10:45:37.539Z,100742.48
2018-09-02T10:48:05.136Z,100737.14
2018-09-02T10:50:32.733Z,100736.78
2018-09-02T10:53:01.347Z,100735.33
2018-09-02T10:55:28.953Z,100733.30
2018-09-02T10:57:57.125Z,100732.72
2018-09-02T11:00:25.167Z,100728.87
2018-09-02T11:02:54.292Z,100725.52
2018-09-02T11:05:21.916Z,100714.95
2018-09-02T11:07:49.853Z,100721.41
2018-09-02T11:10:19.203Z,100715.39
2018-09-02T11:12:46.825Z,100713.23
2018-09-02T11:15:15.282Z,100712.75
2018-09-02T11:17:43.010Z,100706.55
2018-09-02T11:20:11.071Z,100704.41
2018-09-02T11:22:40.831Z,100707.86
2018-09-02T11:25:08.740Z,100708.15
2018-09-02T11:27:37.155Z,100699.06
2018-09-02T11:30:05.205Z,100694.97
2018-09-02T11:32:34.459Z,100694.45
2018-09-02T11:35:02.090Z,100695.69
2018-09-02T11:37:30.187Z,100694.36
2018-09-02T11:39:57.890Z,100684.30
2018-09-02T11:42:26.046Z,100680.05
2018-09-02T11:44:54.080Z,100674.51
2018-09-02T11:47:21.888Z,100676.14
2018-09-02T11:49:49.474Z,100670.08
2018-09-02T11:52:18.213Z,100665.19
2018-09-02T11:54:47.772Z,100667.98
2018-09-02T11:57:15.520Z,100667.02
2018-09-02T11:59:46.498Z,100664.37
2018-09-02T12:02:14.269Z,100660.13
2018-09-02T12:04:44.729Z,100660.89
2018-09-02T12:07:14.466Z,100661.64
2018-09-02T12:09:42.530Z,100649.09
2018-09-02T12:12:10.157Z,100653.55
2018-09-02T12:14:38.248Z,100638.61
2018-09-02T12:17:05.872Z,100641.00
2018-09-02T12:19:33.511Z,100645.56
2018-09-02T12:22:01.603Z,100630.70
2018-09-02T12:24:29.190Z,100633.44
2018-09-02T12:26:56.788Z,100633.53
2018-09-02T12:29:24.338Z,100625.00
2018-09-02T12:31:52.747Z,100628.48
2018-09-02T12:34:20.839Z,100621.14
2018-09-02T12:36:49.054Z,100627.53
2018-09-02T12:39:18.905Z,100626.41
2018-09-02T12:41:49.679Z,100616.77
2018-09-02T12:44:17.299Z,100619.08
2018-09-02T12:46:46.289Z,100613.08
2018-09-02T12:49:14.267Z,100622.23
2018-09-02T12:51:42.018Z,100615.02
2018-09-02T12:54:10.358Z,100613.22
2018-09-02T12:56:38.396Z,100604.67
2018-09-02T12:59:06.050Z,100605.20
2018-09-02T13:01:33.657Z,100600.95
2018-09-02T13:04:02.014Z,100600.08
2018-09-02T13:06:30.219Z,100592.42
2018-09-02T13:08:58.466Z,100583.38
2018-09-02T13:11:26.921Z,100598.31
2018-09-02T13:13:55.442Z,100596.59
2018-09-02T13:16:24.131Z,100599.34
2018-09-02T13:18:52.845Z,100592.57
2018-09-02T13:21:25.515Z,100586.83
2018-09-02T13:23:53.167Z,100579.27
2018-09-02T13:26:22.015Z,100588.38
2018-09-02T13:28:50.218Z,100581.48
2018-09-02T13:31:18.332Z,100583.42
2018-09-02T13:33:46.431Z,100572.02
2018-09-02T13:36:14.055Z,100568.90
2018-09-02T13:38:43.948Z,100574.89
2018-09-02T13:41:12.014Z,100563.55
2018-09-02T13:43:40.266Z,100559.68
2018-09-02T13:46:07.849Z,100569.02
2018-09-02T13:48:36.242Z,100559.28
2018-09-02T13:51:03.865Z,100557.80
2018-09-02T13:53:32.319Z,100562.55
2018-09-02T13:56:00.394Z,100559.92
2018-09-02T13:58:28.695Z,100554.86
2018-09-02T14:00:56.293Z,100565.14
2018-09-02T14:03:27.387Z,100552.87
2018-09-02T14:05:55.907Z,100549.42
2018-09-02T14:08:23.711Z,100552.41
2018-09-02T14:10:51.700Z,100548.55
2018-09-02T14:13:20.986Z,100552.11
2018-09-02T14:15:48.610Z,100532.70
2018-09-02T14:18:16.629Z,100535.34
2018-09-02T14:20:45.403Z,100528.55
2018-09-02T14:23:13.149Z,100526.58
2018-09-02T14:25:41.237Z,100529.42
2018-09-02T14:28:08.911Z,100520.77
2018-09-02T14:30:36.519Z,100517.73
2018-09-02T14:33:04.488Z,100520.52
2018-09-02T14:35:33.070Z,100517.48
2018-09-02T14:38:00.966Z,100513.61
2018-09-02T14:40:28.955Z,100511.78
2018-09-02T14:42:56.582Z,100503.09
2018-09-02T14:45:24.209Z,100504.86
2018-09-02T14:47:52.967Z,100512.67
2018-09-02T14:50:23.894Z,100502.64
2018-09-02T14:52:51.468Z,100500.49
2018-09-02T14:55:20.285Z,100497.67
2018-09-02T14:57:50.115Z,100493.50
2018-09-02T15:00:18.670Z,100490.73
2018-09-02T15:02:47.066Z,100487.27
2018-09-02T15:05:14.676Z,100494.84
2018-09-02T15:07:42.278Z,100490.48
2018-09-02T15:10:10.306Z,100494.69
2018-09-02T15:12:37.922Z,100490.41
2018-09-02T15:15:06.467Z,100490.86
2018-09-02T15:17:34.463Z,100492.50
2018-09-02T15:20:02.042Z,100492.84
2018-09-02T15:22:29.635Z,100496.79
2018-09-02T15:25:00.438Z,100499.77
2018-09-02T15:27:28.229Z,100496.83
2018-09-02T15:29:55.940Z,100495.00
2018-09-02T15:32:23.930Z,100504.95
2018-09-02T15:34:52.466Z,100506.61
2018-09-02T15:37:22.947Z,100502.07
2018-09-02T15:39:56.726Z,100504.09
2018-09-02T15:42:25.682Z,100502.86
2018-09-02T15:44:53.398Z,100497.09
2018-09-02T15:47:21.271Z,100500.39
2018-09-02T15:49:50.059Z,100497.05
2018-09-02T15:52:18.506Z,100501.55
2018-09-02T15:54:46.530Z,100496.80
2018-09-02T15:57:15.290Z,100497.14
2018-09-02T15:59:45.407Z,100503.17
2018-09-02T16:02:14.215Z,100501.59
2018-09-02T16:04:42.019Z,100496.95
2018-09-02T16:07:09.715Z,100495.08
2018-09-02T16:09:39.608Z,100486.36
2018-09-02T16:12:11.682Z,100482.40
2018-09-02T16:14:40.083Z,100484.55
2018-09-02T16:17:08.919Z,100487.59
2018-09-02T16:19:37.577Z,100485.19
2018-09-02T16:22:05.207Z,100482.61
2018-09-02T16:24:33.210Z,100482.80
2018-09-02T16:27:00.912Z,100486.27
2018-09-02T16:29:29.363Z,100483.66
2018-09-02T16:31:57.296Z,100480.20
2018-09-02T16:34:25.721Z,100482.02
2018-09-02T16:36:53.342Z,100490.27
2018-09-02T16:39:22.279Z,100488.87
2018-09-02T16:41:51.083Z,100487.93
2018-09-02T16:44:19.359Z,100488.34
2018-09-02T16:46:48.476Z,100493.48
2018-09-02T16:49:16.652Z,100489.00
2018-09-02T16:51:45.921Z,100481.09
2018-09-02T16:54:14.539Z,100481.17
2018-09-02T16:56:42.283Z,100483.27
2018-09-02T16:59:09.965Z,100481.28
2018-09-02T17:01:38.100Z,100483.88
2018-09-02T17:04:09.530Z,100479.67
2018-09-02T17:06:38.257Z,100483.64
2018-09-02T17:09:06.204Z,100480.83
2018-09-02T17:11:34.930Z,100484.27
2018-09-02T17:14:03.207Z,100479.06
2018-09-02T17:16:31.091Z,100476.21
2018-09-02T17:19:04.155Z,100474.05
2018-09-02T17:21:31.788Z,100465.80
2018-09-02T17:23:59.860Z,100468.20
2018-09-02T17:26:27.476Z,100467.72
2018-09-02T17:28:55.104Z,100462.34
2018-09-02T17:31:23.387Z,100463.71
2018-09-02T17:33:51.016Z,100456.45
2018-09-02T17:36:20.118Z,100456.79
2018-09-02T17:38:48.366Z,100457.45
2018-09-02T17:41:16.003Z,100457.50
2018-09-02T17:43:44.022Z,100454.30
2018-09-02T17:46:12.620Z,100458.38
2018-09-02T17:48:41.096Z,100452.14
2018-09-02T17:51:09.756Z,100462.00
2018-09-02T17:53:37.405Z,100458.97
2018-09-02T17:56:05.043Z,100458.48
2018-09-02T17:58:33.730Z,100461.39
2018-09-02T18:01:06.791Z,100466.12
2018-09-02T18:03:34.665Z,100462.59
2018-09-02T18:06:04.513Z,100466.33
2018-09-02T18:08:33.115Z,100470.76
2018-09-02T18:11:01.216Z,100474.00
2018-09-02T18:13:29.441Z,100477.70
2018-09-02T18:15:57.127Z,100477.24
2018-09-02T18:18:26.243Z,100474.37
2018-09-02T18:20:54.006Z,100473.67
2018-09-02T18:23:22.633Z,100476.75
2018-09-02T18:25:50.660Z,100473.55
2018-09-02T18:28:21.319Z,100481.84
2018-09-02T18:30:49.627Z,100486.92
2018-09-02T18:33:20.601Z,100477.48
2018-09-02T18:35:48.883Z,100490.00
2018-09-02T18:38:16.610Z,100486.62
2018-09-02T18:40:45.263Z,100480.84
2018-09-02T18:43:12.892Z,100482.56
2018-09-02T18:45:40.529Z,100490.35
2018-09-02T18:48:09.055Z,100494.09
2018-09-02T18:50:37.288Z,100490.35
2018-09-02T18:53:05.939Z,100494.24
2018-09-02T18:55:33.968Z,100502.56
2018-09-02T18:58:02.567Z,100502.89
2018-09-02T19:00:31.252Z,100503.91
2018-09-02T19:03:00.373Z,100497.83
2018-09-02T19:05:30.654Z,100503.41
2018-09-02T19:08:00.587Z,100496.84
2018-09-02T19:10:28.520Z,100497.83
2018-09-02T19:12:56.362Z,100500.20
2018-09-02T19:15:25.707Z,100497.16
2018-09-02T19:18:00.447Z,100499.20
2018-09-02T19:20:28.038Z,100503.27
2018-09-02T19:22:57.205Z,100498.54
2018-09-02T19:25:31.448Z,100500.55
2018-09-02T19:28:00.461Z,100499.55
2018-09-02T19:30:30.340Z,100501.59
2018-09-02T19:32:58.576Z,100496.02
2018-09-02T19:35:27.780Z,100498.88
2018-09-02T19:37:56.477Z,100498.22
2018-09-02T19:40:24.770Z,100493.49
2018-09-02T19:45:27.109Z,100480.48
2018-09-02T19:47:58.618Z,100483.34
2018-09-02T19:50:26.355Z,100479.61
2018-09-02T19:52:54.727Z,100476.08
2018-09-02T19:55:26.227Z,100478.94
2018-09-02T19:57:54.661Z,100467.95
2018-09-02T20:00:23.277Z,100467.62
2018-09-02T20:02:55.238Z,100462.41
2018-09-02T20:05:23.834Z,100461.55
2018-09-02T20:07:53.668Z,100461.38
2018-09-02T20:10:35.131Z,100455.95
2018-09-02T20:13:04.824Z,100449.55
2018-09-02T20:15:34.723Z,100460.20
2018-09-02T20:18:04.911Z,100449.88
2018-09-02T20:20:32.533Z,100451.58
2018-09-02T20:23:01.500Z,100451.41
2018-09-02T20:25:31.399Z,100445.17
2018-09-02T20:28:00.914Z,100449.39
2018-09-02T20:30:29.082Z,100445.16
2018-09-02T20:32:56.738Z,100446.18
2018-09-02T20:35:26.237Z,100450.92
2018-09-02T20:37:54.889Z,100448.50
2018-09-02T20:40:22.595Z,100446.33
2018-09-02T20:42:50.889Z,100448.17
2018-09-02T20:45:19.548Z,100439.39
2018-09-02T20:47:47.235Z,100440.41
2018-09-02T20:50:15.974Z,100438.73
2018-09-02T20:52:44.162Z,100433.97
2018-09-02T20:55:14.493Z,100435.32
2018-09-02T20:57:43.341Z,100434.16
2018-09-02T21:00:12.361Z,100430.27
2018-09-02T21:02:40.088Z,100438.05
2018-09-02T21:05:08.496Z,100437.71
2018-09-02T21:07:36.518Z,100436.00
2018-09-02T21:10:04.298Z,100437.34
2018-09-02T21:12:35.626Z,100439.72
2018-09-02T21:15:04.389Z,100428.57
2018-09-02T21:17:33.803Z,100429.25
2018-09-02T21:20:03.111Z,100424.86
2018-09-02T21:22:31.167Z,100424.69
2018-09-02T21:25:00.061Z,100432.30
2018-09-02T21:27:28.398Z,100426.04
2018-09-02T21:29:56.473Z,100427.73
2018-09-02T21:32:25.258Z,100422.67
2018-09-02T21:34:52.909Z,100424.18
2018-09-02T21:37:32.253Z,100424.34
2018-09-02T21:39:59.921Z,100424.53
2018-09-02T21:42:28.681Z,100422.84
2018-09-02T21:44:56.601Z,100418.42
2018-09-02T21:47:25.746Z,100418.09
2018-09-02T21:49:53.786Z,100414.72
2018-09-02T21:52:21.554Z,100418.78
2018-09-02T21:54:50.337Z,100410.00
2018-09-02T21:57:20.823Z,100413.72
2018-09-02T21:59:48.554Z,100414.21
2018-09-02T22:02:16.250Z,100404.91
2018-09-02T22:04:44.465Z,100404.58
2018-09-02T22:07:12.320Z,100404.58
2018-09-02T22:09:39.920Z,100400.68
2018-09-02T22:12:07.949Z,100396.30
2018-09-02T22:14:36.113Z,100394.94
2018-09-02T22:17:04.456Z,100396.30
2018-09-02T22:19:32.447Z,100393.45
2018-09-02T22:22:00.047Z,100394.95
2018-09-02T22:24:27.657Z,100394.09
2018-09-02T22:26:56.554Z,100392.41
2018-09-02T22:29:24.436Z,100388.36
2018-09-02T22:31:52.587Z,100384.83
2018-09-02T22:34:20.566Z,100382.29
2018-09-02T22:36:49.000Z,100373.84
2018-09-02T22:39:16.621Z,100378.23
2018-09-02T22:41:45.177Z,100369.80
2018-09-02T22:44:15.674Z,100374.50
2018-09-02T22:46:43.229Z,100370.45
2018-09-02T22:49:10.836Z,100371.46
2018-09-02T22:51:38.778Z,100370.64
2018-09-02T22:54:07.213Z,100373.83
2018-09-02T22:56:35.803Z,100370.80
2018-09-02T22:59:03.846Z,100360.67
2018-09-02T23:01:31.444Z,100362.52
2018-09-02T23:03:59.014Z,100354.94
2018-09-02T23:06:26.618Z,100359.64
2018-09-02T23:08:54.553Z,100348.50
2018-09-02T23:11:25.810Z,100347.83
2018-09-02T23:13:53.404Z,100349.00
2018-09-02T23:16:21.482Z,100353.22
2018-09-02T23:18:49.084Z,100345.30
2018-09-02T23:21:16.694Z,100348.50
2018-09-02T23:23:44.823Z,100345.95
2018-09-02T23:26:13.237Z,100338.53
2018-09-02T23:28:42.094Z,100339.39
2018-09-02T23:31:10.619Z,100330.62
2018-09-02T23:33:38.206Z,100327.06
2018-09-02T23:36:05.764Z,100321.48
2018-09-02T23:38:33.326Z,100310.34
2018-09-02T23:41:01.274Z,100308.99
2018-09-02T23:43:28.875Z,100309.48
2018-09-02T23:45:56.468Z,100307.99
2018-09-02T23:51:04.766Z,100289.72
2018-09-02T23:53:32.448Z,100291.05
2018-09-02T23:56:00.107Z,100292.75
2018-09-02T23:58:27.738Z,100290.37
